Time;durP1;ratioP1;P1;durP2;ratioP2;P2;SDS_P1;SDS_P2;PMS_P1;PMS_P2;Temp;Humidity;BMP_temperature;BMP_pressure;BME280_temperature;BME280_humidity;BME280_pressure;Samples;Min_cycle;Max_cycle;Signal;HPM_P1;HPM_P2
2022/02/04 00:07:19;;;;;;;54.45;33.58;;;;;;;5.84;95.71;100955.94;2055910;28;45443;-69
2022/02/04 00:23:31;;;;;;;51.28;33.00;;;;;;;5.87;95.48;100954.16;2055627;28;45002;-71
2022/02/04 00:24:33;;;;;;;55.25;34.05;;;;;;;5.88;94.95;100957.69;2056418;28;20044;-71
2022/02/04 00:25:50;;;;;;;57.08;34.83;;;;;;;5.88;95.17;100952.38;2055528;28;45827;-72
2022/02/04 00:26:57;;;;;;;56.22;35.28;;;;;;;5.88;95.32;100947.94;2055171;28;45820;-71
2022/02/04 00:28:05;;;;;;;54.13;34.30;;;;;;;5.87;94.44;100946.19;2055765;28;44035;-72
2022/02/04 00:29:23;;;;;;;52.45;32.20;;;;;;;5.88;95.42;100944.41;2055364;28;44703;-71
2022/02/04 00:30:35;;;;;;;55.22;33.97;;;;;;;5.87;95.33;100940.88;2056517;28;20047;-72
2022/02/04 00:31:42;;;;;;;55.10;34.20;;;;;;;5.87;95.27;100945.31;2055497;28;45134;-72
2022/02/04 00:32:49;;;;;;;48.80;32.92;;;;;;;5.89;95.22;100948.84;2055369;28;44896;-72
2022/02/04 00:33:54;;;;;;;52.05;33.38;;;;;;;5.88;94.69;100944.41;2054508;28;43172;-72
2022/02/04 00:35:10;;;;;;;55.90;34.10;;;;;;;5.88;94.65;100944.41;2054719;28;42902;-72
2022/02/04 00:36:24;;;;;;;50.75;33.45;;;;;;;5.88;94.61;100939.09;2054913;28;42911;-71
2022/02/04 00:38:20;;;;;;;60.65;34.10;;;;;;;5.88;94.58;100947.06;2040086;28;44914;-72
2022/02/04 00:38:55;;;;;;;49.35;32.85;;;;;;;5.88;94.55;100947.06;2046654;28;44782;-71
2022/02/04 00:40:06;;;;;;;52.90;34.75;;;;;;;5.87;94.09;100946.19;2055290;28;42030;-72
2022/02/04 00:41:12;;;;;;;56.33;34.38;;;;;;;5.88;95.11;100947.06;2056256;28;20838;-72
2022/02/04 00:42:14;;;;;;;51.95;33.63;;;;;;;5.86;94.90;100936.44;2055561;28;44966;-71
2022/02/04 00:43:17;;;;;;;51.85;34.17;;;;;;;5.88;94.54;100941.75;2055262;28;44129;-72
2022/02/04 00:44:26;;;;;;;55.40;34.30;;;;;;;5.87;94.17;100940.88;2055545;28;44953;-71
2022/02/04 00:45:35;;;;;;;55.15;32.40;;;;;;;5.88;94.94;100939.97;2055068;28;43690;-72
2022/02/04 00:48:35;;;;;;;56.03;33.40;;;;;;;5.87;94.88;100942.66;2054978;28;46019;-72
2022/02/04 00:49:39;;;;;;;51.25;32.28;;;;;;;5.89;94.05;100944.41;2055099;28;45556;-71
2022/02/04 00:51:01;;;;;;;46.45;30.88;;;;;;;5.90;94.18;100945.28;2055472;28;46574;-71
2022/02/04 00:53:17;;;;;;;53.38;33.80;;;;;;;5.90;94.64;100950.59;2055457;28;45269;-72
2022/02/04 00:55:30;;;;;;;51.42;32.92;;;;;;;5.89;94.31;100944.41;2055439;28;45358;-71
2022/02/04 00:56:45;;;;;;;49.38;30.92;;;;;;;5.90;94.53;100951.50;2055233;28;46510;-71
2022/02/04 01:06:30;;;;;;;51.30;30.83;;;;;;;5.90;94.31;100937.31;2055024;28;45425;-72
2022/02/04 01:13:30;;;;;;;53.90;33.63;;;;;;;5.89;94.31;100940.88;2063174;28;22636;-72
2022/02/04 01:25:55;;;;;;;49.78;32.50;;;;;;;5.89;93.76;100943.53;2054806;28;39816;-71
2022/02/04 01:26:42;;;;;;;48.65;30.63;;;;;;;5.90;94.09;100945.28;2054737;28;45502;-72
2022/02/04 01:27:46;;;;;;;47.58;32.55;;;;;;;5.90;93.79;100939.97;2062378;28;45636;-71
2022/02/04 01:28:51;;;;;;;52.78;34.50;;;;;;;5.90;93.67;100946.19;2061929;28;43912;-71
2022/02/04 01:30:03;;;;;;;50.80;33.35;;;;;;;5.89;94.08;100944.41;2062291;28;45754;-71
2022/02/04 01:31:06;;;;;;;51.38;33.30;;;;;;;5.88;94.07;100942.63;2060641;28;42194;-72
2022/02/04 01:32:09;;;;;;;51.28;32.08;;;;;;;5.88;94.14;100942.63;2053818;28;45508;-72
2022/02/04 01:33:12;;;;;;;50.55;32.67;;;;;;;5.89;94.34;100943.53;2054389;28;44452;-72
2022/02/04 01:34:15;;;;;;;53.60;33.63;;;;;;;5.87;94.06;100938.22;2055305;28;45317;-71
2022/02/04 01:35:19;;;;;;;48.55;31.35;;;;;;;5.88;93.77;100937.31;2054755;28;46792;-72
2022/02/04 01:36:21;;;;;;;50.03;32.83;;;;;;;5.88;94.40;100939.09;2054991;28;43007;-72
2022/02/04 01:37:23;;;;;;;51.75;32.80;;;;;;;5.87;93.99;100934.69;2054921;28;35629;-72
2022/02/04 01:38:28;;;;;;;54.33;34.20;;;;;;;5.86;94.70;100928.47;2055130;28;45995;-72
2022/02/04 01:39:30;;;;;;;51.90;33.80;;;;;;;5.86;93.97;100936.44;2054925;28;45290;-72
2022/02/04 01:40:32;;;;;;;52.38;32.78;;;;;;;5.87;93.87;100934.69;2055085;28;46476;-72
2022/02/04 01:41:34;;;;;;;50.58;32.45;;;;;;;5.86;94.19;100935.56;2062420;28;43648;-72
2022/02/04 01:42:35;;;;;;;55.10;33.92;;;;;;;5.86;93.64;100938.22;2062376;28;35368;-71
2022/02/04 01:43:43;;;;;;;50.95;32.95;;;;;;;5.85;94.25;100933.78;2056035;28;20048;-72
2022/02/04 01:44:45;;;;;;;53.63;32.80;;;;;;;5.85;94.30;100944.41;2055217;28;45881;-72
2022/02/04 01:45:52;;;;;;;49.90;32.88;;;;;;;5.85;93.64;100944.41;2053857;28;44826;-72
2022/02/04 01:46:54;;;;;;;50.75;32.90;;;;;;;5.84;94.01;100934.69;2062251;28;44407;-72
2022/02/04 01:47:56;;;;;;;52.50;33.75;;;;;;;5.83;94.29;100931.16;2061765;28;43403;-72
2022/02/04 01:49:00;;;;;;;50.17;33.33;;;;;;;5.83;94.19;100931.16;2054872;28;46503;-72
2022/02/04 01:50:04;;;;;;;51.65;33.13;;;;;;;5.83;94.13;100930.25;2054650;28;44416;-72
2022/02/04 01:51:12;;;;;;;50.08;31.73;;;;;;;5.81;93.84;100919.63;2055049;28;44065;-72
2022/02/04 01:52:13;;;;;;;55.45;33.25;;;;;;;5.82;94.28;100924.06;2054814;28;45724;-72
2022/02/04 01:53:19;;;;;;;49.78;32.33;;;;;;;5.83;93.94;100923.19;2055214;28;43918;-72
2022/02/04 01:54:23;;;;;;;54.85;32.42;;;;;;;5.81;93.93;100918.75;2054733;28;46522;-72
2022/02/04 01:55:25;;;;;;;52.28;32.30;;;;;;;5.80;93.79;100917.88;2054878;28;46069;-72
2022/02/04 01:56:27;;;;;;;51.92;33.97;;;;;;;5.80;94.23;100915.22;2054398;28;39725;-72
2022/02/04 01:57:32;;;;;;;54.72;33.63;;;;;;;5.81;94.25;100918.75;2054617;28;45946;-71
2022/02/04 01:58:35;;;;;;;50.22;32.78;;;;;;;5.80;93.67;100906.38;2054489;28;44981;-72
2022/02/04 01:59:37;;;;;;;49.58;32.00;;;;;;;5.79;93.74;100912.56;2062341;28;44786;-72
2022/02/04 02:00:40;;;;;;;48.67;31.27;;;;;;;5.79;94.11;100900.16;2061820;28;42211;-71
2022/02/04 02:01:42;;;;;;;58.47;34.25;;;;;;;5.79;93.93;100904.59;2054686;28;43769;-72
2022/02/04 02:02:44;;;;;;;51.75;33.55;;;;;;;5.78;93.54;100900.16;2054892;28;43516;-72
2022/02/04 02:03:45;;;;;;;50.95;32.42;;;;;;;5.77;94.11;100896.63;2055065;28;43824;-71
2022/02/04 02:04:47;;;;;;;56.03;34.33;;;;;;;5.77;93.28;100891.31;2054280;28;46100;-72
2022/02/04 02:05:50;;;;;;;52.05;32.97;;;;;;;5.76;93.57;100889.56;2055140;28;43711;-72
2022/02/04 02:07:00;;;;;;;50.67;31.58;;;;;;;5.75;93.75;100901.06;2054526;28;45517;-72
2022/02/04 02:08:12;;;;;;;52.22;33.25;;;;;;;5.75;93.72;100895.75;2054973;28;43626;-72
2022/02/04 02:09:14;;;;;;;52.53;32.05;;;;;;;5.73;94.44;100890.44;2054515;28;43934;-70
2022/02/04 02:10:19;;;;;;;56.42;34.28;;;;;;;5.74;94.35;100891.31;2056043;28;20070;-72
2022/02/04 02:11:21;;;;;;;55.53;34.03;;;;;;;5.72;94.14;100891.34;2062412;28;44506;-72
2022/02/04 02:12:27;;;;;;;52.15;33.15;;;;;;;5.71;93.43;100892.22;2061410;28;45165;-69
2022/02/04 02:14:32;;;;;;;54.13;33.00;;;;;;;5.70;94.76;100882.47;2055074;28;44410;-70
2022/02/04 02:15:49;;;;;;;53.70;34.20;;;;;;;5.70;93.91;100882.47;2054847;28;42785;-70
2022/02/04 02:37:38;;;;;;;58.10;34.88;;;;;;;5.66;94.34;100870.09;2054867;28;44672;-70
2022/02/04 02:45:57;;;;;;;57.58;33.78;;;;;;;5.66;92.94;100862.13;2045614;28;43985;-70
2022/02/04 02:50:04;;;;;;;54.78;32.05;;;;;;;5.66;93.64;100861.25;2054814;28;44882;-70
2022/02/04 02:52:18;;;;;;;53.03;32.40;;;;;;;5.66;93.30;100863.91;2061926;28;42930;-70
2022/02/04 02:53:46;;;;;;;56.03;31.92;;;;;;;5.67;92.93;100863.00;2062306;28;43460;-70
2022/02/04 02:55:17;;;;;;;54.55;32.83;;;;;;;5.66;94.07;100858.59;2056643;28;45191;-70
2022/02/04 02:59:34;;;;;;;51.83;30.75;;;;;;;5.65;93.54;100847.09;2054735;28;43916;-70
2022/02/04 03:01:13;;;;;;;52.58;31.77;;;;;;;5.64;93.43;100852.41;2063352;28;43754;-70
2022/02/04 03:02:15;;;;;;;52.85;32.60;;;;;;;5.64;93.45;100853.28;2062614;28;45333;-69
2022/02/04 03:03:19;;;;;;;54.13;31.70;;;;;;;5.63;93.23;100835.56;2055891;28;44700;-70
2022/02/04 03:04:21;;;;;;;52.85;32.35;;;;;;;5.62;92.94;100833.81;2056591;28;42442;-70
2022/02/04 03:05:23;;;;;;;53.00;32.13;;;;;;;5.60;93.12;100840.91;2055656;28;46327;-70
2022/02/04 03:06:26;;;;;;;53.95;32.95;;;;;;;5.60;93.23;100847.97;2056243;28;43145;-70
2022/02/04 03:07:27;;;;;;;53.28;32.55;;;;;;;5.59;92.91;100846.22;2056071;28;44443;-70
2022/02/04 03:08:29;;;;;;;52.72;31.80;;;;;;;5.58;93.40;100840.06;2056406;28;45867;-70
2022/02/04 03:09:33;;;;;;;50.28;30.83;;;;;;;5.58;93.29;100850.69;2057042;28;20913;-70
2022/02/04 03:10:36;;;;;;;52.45;30.88;;;;;;;5.58;93.37;100842.72;2056254;28;46328;-70
2022/02/04 03:11:38;;;;;;;50.47;31.13;;;;;;;5.57;94.09;100846.22;2055775;28;44375;-70
2022/02/04 03:12:42;;;;;;;50.35;31.05;;;;;;;5.57;92.93;100843.59;2056231;28;42722;-70
2022/02/04 03:13:44;;;;;;;48.92;31.17;;;;;;;5.57;93.65;100843.59;2056027;28;44581;-70
2022/02/04 03:14:46;;;;;;;53.42;32.60;;;;;;;5.57;93.36;100846.22;2063387;28;44113;-70
2022/02/04 03:15:56;;;;;;;50.42;31.77;;;;;;;5.58;93.57;100847.09;2063232;28;44914;-70
2022/02/04 03:16:59;;;;;;;52.22;30.90;;;;;;;5.58;93.06;100842.72;2055447;28;44648;-70
2022/02/04 03:18:10;;;;;;;50.95;29.83;;;;;;;5.57;93.18;100838.28;2063347;28;41137;-70
2022/02/04 03:19:13;;;;;;;54.65;32.30;;;;;;;5.57;93.59;100840.94;2063139;28;43806;-70
2022/02/04 03:20:15;;;;;;;50.90;31.35;;;;;;;5.56;93.38;100847.09;2062021;28;45138;-70
2022/02/04 03:21:23;;;;;;;53.05;29.55;;;;;;;5.56;93.41;100849.75;2055964;28;42323;-70
2022/02/04 03:22:25;;;;;;;50.72;30.77;;;;;;;5.54;94.01;100844.50;2055934;28;44803;-70
2022/02/04 03:23:30;;;;;;;50.90;31.10;;;;;;;5.55;93.86;100846.25;2063303;28;44073;-70
2022/02/04 03:24:32;;;;;;;48.35;29.83;;;;;;;5.54;93.78;100838.28;2062399;28;45850;-70
2022/02/04 03:25:39;;;;;;;48.75;29.25;;;;;;;5.54;93.56;100835.63;2055435;28;45474;-70
2022/02/04 03:27:53;;;;;;;51.90;30.90;;;;;;;5.52;93.21;100840.06;2061897;28;43176;-70
2022/02/04 03:29:00;;;;;;;56.05;32.67;;;;;;;5.52;94.07;100838.28;2056978;28;20393;-70
2022/02/04 03:30:08;;;;;;;54.55;31.95;;;;;;;5.51;92.90;100836.53;2055396;28;46443;-70
2022/02/04 03:31:10;;;;;;;55.50;31.60;;;;;;;5.50;93.73;100833.88;2056014;28;43459;-70
2022/02/04 03:32:17;;;;;;;51.22;31.05;;;;;;;5.49;93.92;100840.06;2062523;28;44299;-70
2022/02/04 03:33:21;;;;;;;52.83;31.77;;;;;;;5.48;93.73;100830.34;2062193;28;46036;-70
2022/02/04 03:34:23;;;;;;;54.50;32.08;;;;;;;5.44;93.03;100829.47;2055544;28;43906;-70
2022/02/04 03:35:25;;;;;;;54.83;32.28;;;;;;;5.42;93.57;100827.69;2055801;28;45164;-70
2022/02/04 03:36:28;;;;;;;54.72;32.70;;;;;;;5.40;93.69;100821.50;2056131;28;20980;-70
2022/02/04 03:37:29;;;;;;;50.03;31.80;;;;;;;5.38;93.75;100828.59;2055639;28;43925;-70
2022/02/04 03:38:33;;;;;;;51.25;31.35;;;;;;;5.40;94.16;100824.16;2055041;28;46991;-70
2022/02/04 03:39:36;;;;;;;54.53;32.45;;;;;;;5.38;93.77;100823.28;2056762;28;20051;-70
2022/02/04 03:40:40;;;;;;;54.75;32.83;;;;;;;5.39;94.30;100825.06;2055594;28;37412;-70
2022/02/04 03:41:41;;;;;;;52.97;31.50;;;;;;;5.37;93.36;100821.53;2055834;28;44303;-70
2022/02/04 03:42:48;;;;;;;54.42;31.88;;;;;;;5.36;94.30;100828.59;2055116;28;44035;-70
2022/02/04 03:43:52;;;;;;;52.45;30.65;;;;;;;5.34;93.88;100825.06;2056023;28;46193;-70
2022/02/04 03:44:54;;;;;;;54.85;32.08;;;;;;;5.32;94.56;100810.94;2055229;28;45686;-70
2022/02/04 03:45:55;;;;;;;55.55;32.05;;;;;;;5.32;94.31;100814.47;2056137;28;46209;-70
2022/02/04 03:46:59;;;;;;;53.45;30.67;;;;;;;5.32;93.64;100817.13;2055163;28;44466;-70
2022/02/04 03:48:01;;;;;;;58.80;32.90;;;;;;;5.31;93.94;100812.72;2055822;28;45347;-70
2022/02/04 03:49:03;;;;;;;55.78;31.63;;;;;;;5.30;94.06;100813.59;2055557;28;44530;-70
2022/02/04 03:50:05;;;;;;;54.47;31.60;;;;;;;5.29;94.03;100805.63;2063657;28;43944;-70
2022/02/04 03:51:07;;;;;;;54.72;30.70;;;;;;;5.27;93.83;100805.63;2054607;28;44001;-70
2022/02/04 03:52:09;;;;;;;56.75;32.38;;;;;;;5.28;93.93;100810.06;2055022;28;44644;-70
2022/02/04 03:53:16;;;;;;;56.97;32.67;;;;;;;5.27;93.89;100813.59;2054932;28;44283;-70
2022/02/04 03:54:17;;;;;;;53.80;32.00;;;;;;;5.29;94.01;100797.66;2056120;28;46222;-71
2022/02/04 03:55:20;;;;;;;51.75;32.00;;;;;;;5.30;93.84;100804.75;2062916;28;44696;-70
2022/02/04 03:56:22;;;;;;;56.33;32.20;;;;;;;5.30;94.02;100808.28;2063002;28;44276;-70
2022/02/04 03:57:24;;;;;;;54.67;31.55;;;;;;;5.30;94.11;100808.28;2055088;28;39232;-70
2022/02/04 03:58:25;;;;;;;55.15;32.63;;;;;;;5.31;93.97;100803.84;2055089;28;45135;-70
2022/02/04 03:59:29;;;;;;;55.55;31.85;;;;;;;5.32;93.87;100797.66;2063029;28;20137;-70
2022/02/04 04:00:31;;;;;;;56.92;32.28;;;;;;;5.33;94.20;100799.44;2055783;28;44456;-70
2022/02/04 04:01:32;;;;;;;54.65;33.00;;;;;;;5.35;93.34;100808.28;2055449;28;45451;-70
2022/02/04 04:02:34;;;;;;;52.78;32.13;;;;;;;5.35;94.00;100801.19;2055433;28;42406;-72
2022/02/04 04:03:36;;;;;;;53.95;32.03;;;;;;;5.35;93.51;100801.19;2055388;28;45481;-70
2022/02/04 04:04:40;;;;;;;58.20;32.42;;;;;;;5.36;94.01;100807.38;2055466;28;43975;-69
2022/02/04 04:05:48;;;;;;;52.92;31.85;;;;;;;5.35;93.34;100805.63;2055249;28;43421;-69
2022/02/04 04:06:53;;;;;;;54.20;32.92;;;;;;;5.37;93.85;100795.00;2063355;28;44241;-70
2022/02/04 04:07:55;;;;;;;53.47;32.47;;;;;;;5.40;93.49;100801.19;2061841;28;40438;-69
2022/02/04 04:09:00;;;;;;;54.75;32.65;;;;;;;5.40;93.52;100805.59;2063364;28;20034;-69
2022/02/04 04:10:09;;;;;;;53.95;31.15;;;;;;;5.41;93.58;100810.00;2062919;28;46052;-69
2022/02/04 04:11:13;;;;;;;55.72;32.38;;;;;;;5.41;93.36;100813.53;2055398;28;39058;-69
2022/02/04 04:12:17;;;;;;;53.00;31.50;;;;;;;5.43;93.30;100809.09;2048658;28;44086;-70
2022/02/04 04:13:21;;;;;;;50.80;30.38;;;;;;;5.43;93.59;100808.22;2056603;28;20080;-69
2022/02/04 04:14:23;;;;;;;54.25;32.50;;;;;;;5.42;92.81;100807.34;2055108;28;43397;-70
2022/02/04 04:15:24;;;;;;;54.45;31.30;;;;;;;5.44;93.90;100810.00;2055377;28;44469;-69
2022/02/04 04:16:31;;;;;;;51.17;31.67;;;;;;;5.44;93.42;100813.53;2062385;28;45681;-69
2022/02/04 04:17:39;;;;;;;55.10;31.38;;;;;;;5.44;92.99;100799.41;2055149;28;42501;-70
2022/02/04 04:18:43;;;;;;;57.70;31.98;;;;;;;5.44;93.04;100802.03;2055616;28;46737;-70
2022/02/04 04:19:45;;;;;;;51.10;31.25;;;;;;;5.45;93.52;100809.09;2054874;28;43015;-69
2022/02/04 04:20:47;;;;;;;55.33;31.27;;;;;;;5.45;93.10;100801.13;2047068;28;45287;-70
2022/02/04 04:21:48;;;;;;;55.67;32.83;;;;;;;5.46;93.61;100794.94;2055076;28;41500;-70
2022/02/04 04:22:55;;;;;;;56.90;32.42;;;;;;;5.45;93.41;100803.78;2063526;28;20109;-70
2022/02/04 04:23:58;;;;;;;54.47;31.67;;;;;;;5.47;92.99;100791.38;2055521;28;44924;-70
2022/02/04 04:24:59;;;;;;;54.42;33.15;;;;;;;5.45;92.92;100794.03;2055304;28;44293;-70
2022/02/04 04:26:01;;;;;;;58.35;33.13;;;;;;;5.46;92.71;100800.25;2055276;28;44066;-69
2022/02/04 04:27:03;;;;;;;55.60;32.92;;;;;;;5.47;92.86;100799.34;2055681;28;42932;-69
2022/02/04 04:28:05;;;;;;;55.75;33.78;;;;;;;5.47;93.31;100796.69;2055582;28;45772;-70
2022/02/04 04:29:13;;;;;;;53.42;32.53;;;;;;;5.47;93.65;100800.25;2056559;28;20154;-70
2022/02/04 04:30:17;;;;;;;54.55;32.63;;;;;;;5.48;93.26;100795.81;2055491;28;43482;-70
2022/02/04 04:31:19;;;;;;;56.92;33.55;;;;;;;5.48;93.10;100791.38;2063111;28;43223;-70
2022/02/04 04:32:21;;;;;;;54.50;32.05;;;;;;;5.49;93.88;100800.22;2062474;28;40094;-70
2022/02/04 04:33:23;;;;;;;53.92;31.35;;;;;;;5.49;93.80;100794.91;2062653;28;45550;-70
2022/02/04 04:34:24;;;;;;;53.63;32.55;;;;;;;5.49;93.62;100795.81;2054892;28;44034;-70
2022/02/04 04:35:28;;;;;;;56.20;32.10;;;;;;;5.50;93.16;100792.25;2056269;28;37628;-69
2022/02/04 04:36:30;;;;;;;54.78;33.25;;;;;;;5.51;93.17;100791.38;2055495;28;45159;-70
2022/02/04 04:37:33;;;;;;;53.60;32.10;;;;;;;5.51;93.23;100787.84;2055482;28;44010;-69
2022/02/04 04:39:27;;;;;;;55.72;33.05;;;;;;;5.52;93.10;100792.25;2055512;28;43195;-70
2022/02/04 04:40:21;;;;;;;54.67;32.78;;;;;;;5.51;93.20;100783.41;2047870;28;46558;-70
2022/02/04 04:42:31;;;;;;;53.55;32.10;;;;;;;5.53;92.87;100786.06;2055579;28;44235;-70
2022/02/04 04:45:22;;;;;;;60.38;33.58;;;;;;;5.54;92.99;100778.09;2056662;28;20105;-69
2022/02/04 04:46:57;;;;;;;52.85;31.17;;;;;;;5.56;93.80;100788.69;2055056;28;43086;-70
2022/02/04 05:26:03;;;;;;;52.28;31.33;;;;;;;5.73;93.44;100757.63;2055094;28;45882;-70
2022/02/04 05:28:14;;;;;;;55.35;31.27;;;;;;;5.75;93.35;100749.63;2055282;28;46625;-69
2022/02/04 05:29:18;;;;;;;56.10;32.83;;;;;;;5.75;93.32;100752.28;2056287;28;20140;-69
2022/02/04 05:30:19;;;;;;;54.60;32.22;;;;;;;5.74;93.08;100748.78;2054855;28;44290;-69
2022/02/04 05:31:23;;;;;;;52.20;32.95;;;;;;;5.77;93.38;100744.31;2054608;28;43798;-69
2022/02/04 05:32:25;;;;;;;51.72;31.52;;;;;;;5.77;93.38;100749.63;2054179;28;44508;-70
2022/02/04 05:33:27;;;;;;;54.35;32.63;;;;;;;5.77;93.29;100742.53;2054422;28;45312;-69
2022/02/04 05:34:31;;;;;;;54.58;32.90;;;;;;;5.78;93.39;100748.72;2055719;28;20946;-69
2022/02/04 05:35:33;;;;;;;54.15;32.50;;;;;;;5.78;93.24;100744.31;2047050;28;45134;-70
2022/02/04 05:36:40;;;;;;;53.40;32.00;;;;;;;5.79;93.24;100740.75;2054688;28;44791;-70
2022/02/04 05:37:45;;;;;;;52.60;32.25;;;;;;;5.81;92.97;100732.78;2054230;28;44505;-69
2022/02/04 05:38:47;;;;;;;51.20;33.25;;;;;;;5.81;92.75;100735.44;2054879;28;44344;-69
2022/02/04 05:39:56;;;;;;;51.40;32.53;;;;;;;5.83;92.78;100730.97;2045791;28;43381;-69
2022/02/04 05:40:58;;;;;;;54.10;32.72;;;;;;;5.82;93.03;100724.78;2047586;28;45470;-69
2022/02/04 05:42:02;;;;;;;53.45;32.25;;;;;;;5.83;92.92;100726.56;2054690;28;47728;-69
2022/02/04 05:43:17;;;;;;;54.38;32.78;;;;;;;5.84;92.87;100728.31;2062214;28;43036;-69
2022/02/04 05:44:19;;;;;;;51.10;31.23;;;;;;;5.85;93.49;100718.56;2062464;28;45728;-69
2022/02/04 05:45:23;;;;;;;51.97;33.05;;;;;;;5.85;93.13;100716.81;2061023;28;44794;-69
2022/02/04 05:46:32;;;;;;;53.75;32.80;;;;;;;5.87;92.96;100719.47;2054912;28;45107;-69
2022/02/04 05:47:35;;;;;;;52.60;32.08;;;;;;;5.86;92.93;100715.03;2054954;28;46685;-70
2022/02/04 05:48:42;;;;;;;51.22;33.05;;;;;;;5.86;93.07;100715.03;2055493;28;44107;-69
2022/02/04 05:49:59;;;;;;;50.40;32.13;;;;;;;5.87;93.40;100717.69;2054548;28;45601;-69
2022/02/04 05:51:27;;;;;;;51.78;32.50;;;;;;;5.88;92.81;100710.59;2055308;28;45994;-70
2022/02/04 05:52:33;;;;;;;51.83;33.22;;;;;;;5.88;93.09;100705.28;2055037;28;44282;-70
2022/02/04 05:53:45;;;;;;;55.80;33.38;;;;;;;5.87;92.79;100707.06;2054899;28;44875;-69
2022/02/04 05:55:04;;;;;;;50.15;30.85;;;;;;;5.89;92.99;100697.28;2055728;28;39530;-69
2022/02/04 05:57:17;;;;;;;50.80;31.55;;;;;;;5.91;92.87;100707.91;2062362;28;44980;-69
2022/02/04 06:01:07;;;;;;;50.88;32.17;;;;;;;5.92;92.76;100699.03;2055270;28;42343;-69
2022/02/04 06:05:18;;;;;;;49.60;32.75;;;;;;;5.96;92.52;100707.88;2055209;28;44419;-71
2022/02/04 06:08:24;;;;;;;47.97;30.40;;;;;;;5.99;92.49;100695.47;2055225;28;45527;-70
2022/02/04 06:10:06;;;;;;;50.88;32.70;;;;;;;6.01;92.56;100698.13;2054940;28;41671;-71
2022/02/04 06:13:38;;;;;;;52.10;33.35;;;;;;;6.04;92.96;100684.81;2055345;28;39718;-70
2022/02/04 06:14:51;;;;;;;48.00;32.05;;;;;;;6.06;92.43;100686.53;2054845;28;43750;-70
2022/02/04 06:22:31;;;;;;;;;;;;;;;6.11;91.83;100679.41;2055234;28;45923;-70
2022/02/04 06:23:35;;;;;;;47.67;32.30;;;;;;;6.13;92.08;100670.56;2055044;28;43789;-70
2022/02/04 06:24:38;;;;;;;47.72;32.15;;;;;;;6.15;92.31;100674.94;2054881;28;45466;-70
2022/02/04 06:25:43;;;;;;;51.08;32.72;;;;;;;6.18;92.29;100679.38;2054468;28;46337;-70
2022/02/04 06:26:45;;;;;;;49.60;32.97;;;;;;;6.18;92.42;100677.59;2054753;28;44503;-69
2022/02/04 06:27:47;;;;;;;50.97;34.53;;;;;;;6.19;92.54;100682.03;2054631;28;44062;-70
2022/02/04 06:28:49;;;;;;;51.25;33.60;;;;;;;6.19;91.85;100678.47;2062257;28;43217;-70
2022/02/04 06:29:56;;;;;;;47.20;33.15;;;;;;;6.22;92.16;100679.31;2061526;28;45760;-70
2022/02/04 06:30:58;;;;;;;46.92;32.25;;;;;;;6.22;91.79;100676.66;2061928;28;45034;-70
2022/02/04 06:31:59;;;;;;;48.58;32.80;;;;;;;6.22;92.13;100675.78;2061448;28;44693;-69
2022/02/04 06:33:01;;;;;;;49.75;33.67;;;;;;;6.20;91.78;100675.81;2056057;28;45721;-70
2022/02/04 06:34:04;;;;;;;48.55;33.83;;;;;;;6.20;92.09;100672.25;2056737;28;44650;-69
2022/02/04 06:35:08;;;;;;;45.42;32.63;;;;;;;6.23;92.01;100674.91;2055188;28;45145;-69
2022/02/04 06:36:10;;;;;;;46.05;33.00;;;;;;;6.22;91.42;100679.31;2055909;28;45974;-70
2022/02/04 06:37:13;;;;;;;47.22;32.42;;;;;;;6.22;92.46;100676.66;2062730;28;44584;-70
2022/02/04 06:38:17;;;;;;;47.75;33.00;;;;;;;6.24;92.17;100679.31;2055701;28;44072;-70
2022/02/04 06:39:20;;;;;;;47.55;33.38;;;;;;;6.26;91.84;100678.41;2056112;28;45898;-69
2022/02/04 06:40:24;;;;;;;47.78;33.22;;;;;;;6.28;91.81;100675.72;2064371;28;20979;-70
2022/02/04 06:41:26;;;;;;;45.78;32.80;;;;;;;6.29;91.46;100672.19;2063485;28;46273;-70
2022/02/04 06:42:29;;;;;;;45.33;32.42;;;;;;;6.30;91.44;100679.28;2056079;28;43061;-70
2022/02/04 06:43:35;;;;;;;47.30;32.70;;;;;;;6.31;91.56;100681.00;2056592;28;44525;-70
2022/02/04 06:44:37;;;;;;;44.53;31.13;;;;;;;6.29;91.55;100681.03;2063498;28;44836;-70
2022/02/04 06:45:44;;;;;;;44.08;31.00;;;;;;;6.31;92.19;100681.00;2063628;28;20042;-70
2022/02/04 06:46:46;;;;;;;48.38;32.53;;;;;;;6.32;91.85;100680.13;2056454;28;39951;-70
2022/02/04 06:47:48;;;;;;;44.38;32.20;;;;;;;6.31;91.63;100678.34;2055663;28;43347;-70
2022/02/04 06:48:50;;;;;;;42.60;30.63;;;;;;;6.31;91.14;100676.56;2063716;28;42908;-70
2022/02/04 06:49:52;;;;;;;46.97;32.50;;;;;;;6.33;91.40;100668.59;2063681;28;38143;-69
2022/02/04 06:50:54;;;;;;;45.35;32.42;;;;;;;6.34;91.69;100672.16;2055699;28;44761;-70
2022/02/04 06:51:58;;;;;;;43.83;31.42;;;;;;;6.35;91.20;100669.44;2055546;28;43982;-70
2022/02/04 06:52:59;;;;;;;44.13;32.50;;;;;;;6.35;91.27;100669.44;2047407;28;45750;-70
2022/02/04 06:54:03;;;;;;;41.60;30.92;;;;;;;6.34;91.76;100672.16;2049154;28;20070;-69
2022/02/04 06:55:06;;;;;;;43.75;31.30;;;;;;;6.35;90.96;100674.75;2056244;28;41298;-69
2022/02/04 06:56:07;;;;;;;43.17;30.75;;;;;;;6.36;91.45;100668.56;2056040;28;44793;-71
2022/02/04 06:57:09;;;;;;;45.72;30.63;;;;;;;6.37;91.11;100670.34;2056087;28;45375;-69
2022/02/04 06:58:12;;;;;;;41.55;30.65;;;;;;;6.36;91.18;100668.56;2055602;28;45645;-70
2022/02/04 06:59:14;;;;;;;42.00;30.65;;;;;;;6.37;91.33;100664.13;2063354;28;45033;-69
2022/02/04 07:00:18;;;;;;;44.92;31.02;;;;;;;6.37;91.24;100664.13;2063220;28;46221;-68
2022/02/04 07:01:19;;;;;;;44.47;31.88;;;;;;;6.37;91.46;100670.34;2055179;28;43397;-70
2022/02/04 07:02:23;;;;;;;42.05;31.38;;;;;;;6.38;91.27;100664.09;2054961;28;44102;-70
2022/02/04 07:03:25;;;;;;;41.13;30.30;;;;;;;6.40;90.77;100658.78;2055890;28;41057;-69
2022/02/04 07:04:31;;;;;;;42.25;30.67;;;;;;;6.40;91.23;100662.31;2063325;28;43743;-70
2022/02/04 07:05:41;;;;;;;41.80;30.50;;;;;;;6.40;91.26;100659.66;2055603;28;44783;-69
2022/02/04 07:06:51;;;;;;;41.80;29.40;;;;;;;6.40;91.21;100661.44;2055302;28;41876;-69
2022/02/04 07:08:04;;;;;;;41.00;29.77;;;;;;;6.42;91.54;100659.63;2055882;28;44216;-70
2022/02/04 07:10:50;;;;;;;37.10;28.35;;;;;;;6.40;91.25;100649.00;2061311;28;43099;-70
2022/02/04 07:12:19;;;;;;;40.50;29.20;;;;;;;6.40;90.88;100659.66;2063113;28;45750;-69
2022/02/04 07:14:38;;;;;;;39.25;29.13;;;;;;;6.44;91.44;100656.09;2056148;28;45248;-69
2022/02/04 07:15:49;;;;;;;42.53;30.02;;;;;;;6.43;90.90;100654.31;2055675;28;44048;-70
2022/02/04 07:19:48;;;;;;;40.47;27.50;;;;;;;6.45;90.94;100652.50;2055651;28;43687;-69
2022/02/04 07:20:52;;;;;;;39.15;28.30;;;;;;;6.45;90.70;100644.53;2056287;28;44636;-70
2022/02/04 07:21:58;;;;;;;38.85;28.80;;;;;;;6.45;91.03;100641.88;2056796;28;20914;-69
2022/02/04 07:23:00;;;;;;;37.97;29.55;;;;;;;6.44;90.78;100640.13;2055995;28;43702;-70
2022/02/04 07:24:02;;;;;;;39.22;28.73;;;;;;;6.45;91.00;100646.31;2055834;28;44547;-69
2022/02/04 07:25:06;;;;;;;38.53;28.45;;;;;;;6.45;90.91;100647.19;2055807;28;43336;-69
2022/02/04 07:26:08;;;;;;;36.20;28.10;;;;;;;6.45;90.57;100646.31;2063380;28;45302;-69
2022/02/04 07:27:10;;;;;;;37.85;27.60;;;;;;;6.58;90.93;100649.72;2062294;28;46295;-68
2022/02/04 07:28:12;;;;;;;38.38;27.52;;;;;;;6.68;91.17;100643.41;2054048;28;42039;-66
2022/02/04 07:29:14;;;;;;;40.03;28.77;;;;;;;6.67;90.81;100641.63;2054612;28;45440;-67
2022/02/04 07:30:16;;;;;;;34.67;27.17;;;;;;;6.83;90.90;100637.00;2053904;28;43523;-68
2022/02/04 07:31:19;;;;;;;32.17;26.65;;;;;;;6.70;89.82;100638.94;2063838;28;38823;-70
2022/02/04 07:32:33;;;;;;;35.80;27.60;;;;;;;6.67;89.77;100645.16;2054911;28;44067;-70
2022/02/04 07:34:11;;;;;;;32.85;25.20;;;;;;;6.64;89.45;100646.97;2055367;28;45730;-69
2022/02/04 07:35:30;;;;;;;34.90;26.15;;;;;;;6.63;89.78;100642.56;2055865;28;44034;-70
2022/02/04 07:42:04;;;;;;;31.80;24.65;;;;;;;6.59;89.54;100635.53;2049643;28;20229;-68